createdAt,value
2023-02-14T00:03:27.877Z,4.23
2023-02-14T00:08:30.281Z,4.17
2023-02-14T00:13:31.666Z,4.11
2023-02-14T00:18:51.690Z,4.08
2023-02-14T00:23:53.045Z,4.02
2023-02-14T00:28:54.418Z,3.95
2023-02-14T00:33:55.780Z,3.77
2023-02-14T00:38:57.364Z,3.75
2023-02-14T00:43:59.266Z,3.80
2023-02-14T00:49:00.706Z,3.76
2023-02-14T00:54:03.252Z,3.73
2023-02-14T00:59:04.639Z,3.69
2023-02-14T01:04:07.650Z,3.62
2023-02-14T01:09:09.188Z,3.50
2023-02-14T01:14:10.588Z,3.48
2023-02-14T01:19:11.919Z,3.49
2023-02-14T01:24:13.343Z,3.45
2023-02-14T01:29:14.658Z,3.38
2023-02-14T01:34:16.082Z,3.35
2023-02-14T01:39:18.495Z,3.34
2023-02-14T01:44:25.827Z,3.31
2023-02-14T01:49:31.788Z,3.26
2023-02-14T01:54:36.117Z,3.18
2023-02-14T01:59:43.410Z,3.17
2023-02-14T02:04:46.730Z,3.13
2023-02-14T02:09:55.711Z,3.06
2023-02-14T02:14:59.182Z,3.02
2023-02-14T02:20:37.790Z,2.97
2023-02-14T02:26:07.985Z,2.98
2023-02-14T02:31:39.927Z,2.98
2023-02-14T02:36:51.634Z,2.89
2023-02-14T02:42:05.953Z,2.86
2023-02-14T02:47:27.230Z,2.81
2023-02-14T02:52:58.670Z,2.87
2023-02-14T02:58:00.431Z,2.85
2023-02-14T03:03:20.480Z,2.85
2023-02-14T03:08:21.799Z,2.83
2023-02-14T03:13:44.427Z,2.82
2023-02-14T03:18:57.213Z,2.80
2023-02-14T03:24:09.617Z,2.72
2023-02-14T03:29:48.507Z,2.68
2023-02-14T03:35:34.278Z,2.66
2023-02-14T03:41:02.638Z,2.65
2023-02-14T03:46:07.271Z,2.56
2023-02-14T03:51:12.045Z,2.51
2023-02-14T03:56:26.701Z,2.50
2023-02-14T04:01:36.564Z,2.49
2023-02-14T04:06:38.068Z,2.50
2023-02-14T04:11:39.782Z,2.49
2023-02-14T04:16:59.885Z,2.48
2023-02-14T04:22:01.251Z,2.46
2023-02-14T04:27:11.544Z,2.45
2023-02-14T04:32:16.283Z,2.45
2023-02-14T04:37:19.820Z,2.50
2023-02-14T04:42:21.209Z,2.54
2023-02-14T04:47:22.620Z,2.65
2023-02-14T04:52:24.033Z,2.73
2023-02-14T04:57:25.433Z,2.83
2023-02-14T05:02:26.891Z,2.97
2023-02-14T05:07:28.419Z,3.12
2023-02-14T05:12:29.881Z,3.26
2023-02-14T05:17:31.312Z,3.36
2023-02-14T05:22:32.695Z,3.41
2023-02-14T05:27:34.078Z,3.46
2023-02-14T05:32:35.470Z,3.56
2023-02-14T05:37:36.821Z,3.40
2023-02-14T05:42:38.183Z,3.51
2023-02-14T05:47:39.685Z,3.58
2023-02-14T05:52:41.569Z,3.64
2023-02-14T05:57:42.969Z,3.69
2023-02-14T06:02:44.395Z,3.78
2023-02-14T06:07:50.466Z,3.84
2023-02-14T06:12:53.151Z,3.89
2023-02-14T06:17:56.178Z,3.93
2023-02-14T06:22:57.591Z,3.97
2023-02-14T06:27:59.323Z,3.96
2023-02-14T06:33:00.760Z,4.07
2023-02-14T06:38:02.115Z,4.13
2023-02-14T06:43:03.572Z,4.18
2023-02-14T06:48:05.082Z,4.22
2023-02-14T06:53:06.487Z,4.27
2023-02-14T06:58:07.908Z,4.36
2023-02-14T07:03:09.708Z,4.43
2023-02-14T07:08:11.255Z,4.16
2023-02-14T07:13:12.931Z,4.25
2023-02-14T07:18:14.269Z,4.35
2023-02-14T07:23:15.674Z,4.46
2023-02-14T07:28:17.056Z,4.59
2023-02-14T07:33:18.529Z,4.65
2023-02-14T07:38:19.998Z,4.80
2023-02-14T07:43:21.398Z,4.90
2023-02-14T07:48:22.828Z,4.88
2023-02-14T07:53:24.995Z,4.94
2023-02-14T07:58:26.490Z,5.03
2023-02-14T08:03:27.839Z,5.04
2023-02-14T08:08:31.825Z,5.07
2023-02-14T08:13:33.475Z,4.93
2023-02-14T08:18:37.917Z,4.99
2023-02-14T08:23:39.317Z,5.10
2023-02-14T08:28:40.729Z,5.16
2023-02-14T08:33:44.156Z,5.34
2023-02-14T08:38:47.872Z,5.27
2023-02-14T08:43:50.009Z,5.14
2023-02-14T08:48:53.291Z,5.25
2023-02-14T08:53:55.865Z,5.26
2023-02-14T08:58:57.226Z,5.35
2023-02-14T09:03:58.815Z,5.45
2023-02-14T09:09:02.466Z,5.53
2023-02-14T09:14:04.037Z,5.73
2023-02-14T09:19:05.662Z,5.78
2023-02-14T09:24:07.020Z,5.83
2023-02-14T09:29:08.369Z,5.93
2023-02-14T09:34:09.727Z,5.71
2023-02-14T09:39:11.142Z,5.66
2023-02-14T09:44:29.200Z,5.76
2023-02-14T09:49:35.976Z,5.72
2023-02-14T09:54:37.568Z,5.85
2023-02-14T10:00:13.376Z,6.03
2023-02-14T10:05:28.898Z,6.11
2023-02-14T10:11:06.960Z,6.16
2023-02-14T10:16:27.436Z,6.13
2023-02-14T10:21:42.992Z,6.22
2023-02-14T10:26:48.189Z,6.06
2023-02-14T10:31:55.724Z,6.03
2023-02-14T11:30:57.490Z,6.77
2023-02-14T11:35:59.752Z,6.82
2023-02-14T11:41:02.347Z,6.69
2023-02-14T11:46:15.034Z,6.36
2023-02-14T12:01:52.996Z,6.30
2023-02-14T12:06:54.734Z,6.55
2023-02-14T12:12:14.787Z,6.94
2023-02-14T12:17:29.666Z,7.13
2023-02-14T12:22:37.119Z,7.13
2023-02-14T12:27:48.974Z,7.08
2023-02-14T12:32:52.812Z,7.27
2023-02-14T12:38:03.810Z,7.28
2023-02-14T12:43:16.099Z,7.41
2023-02-14T12:48:42.073Z,7.55
2023-02-14T12:53:58.222Z,7.53
2023-02-14T12:59:28.385Z,7.45
2023-02-14T13:04:53.106Z,7.29
2023-02-14T13:10:04.477Z,7.26
2023-02-14T13:15:18.977Z,7.44
2023-02-14T13:20:44.431Z,7.58
2023-02-14T13:25:52.484Z,7.63
2023-02-14T13:30:55.758Z,7.51
2023-02-14T13:36:02.100Z,7.61
2023-02-14T13:41:05.368Z,7.47
2023-02-14T13:46:06.872Z,7.08
2023-02-14T13:51:10.408Z,7.35
2023-02-14T13:56:11.691Z,7.52
2023-02-14T14:01:33.285Z,7.56
2023-02-14T14:07:02.702Z,7.52
2023-02-14T14:12:04.127Z,7.42
2023-02-14T14:17:19.508Z,7.38
2023-02-14T14:22:22.208Z,7.24
2023-02-14T14:27:44.430Z,6.84
2023-02-14T14:32:46.460Z,6.75
2023-02-14T14:37:57.075Z,6.84
2023-02-14T14:43:32.574Z,6.83
2023-02-14T14:48:45.395Z,6.98
2023-02-14T14:53:54.584Z,7.24
2023-02-14T14:58:56.281Z,7.29
2023-02-14T15:04:18.253Z,7.16
2023-02-14T15:09:24.105Z,6.76
2023-02-14T15:14:28.841Z,6.74
2023-02-14T15:19:38.826Z,7.01
2023-02-14T15:24:40.245Z,7.00
2023-02-14T15:29:41.662Z,6.94
2023-02-14T15:34:43.422Z,6.69
2023-02-14T15:39:49.299Z,6.45
2023-02-14T15:44:50.704Z,6.33
2023-02-14T15:49:52.062Z,6.01
2023-02-14T15:54:53.712Z,5.98
2023-02-14T15:59:55.325Z,6.08
2023-02-14T16:05:04.117Z,5.78
2023-02-14T16:10:25.714Z,5.83
2023-02-14T16:15:32.492Z,5.85
2023-02-14T16:20:46.841Z,5.86
2023-02-14T16:25:48.894Z,5.79
2023-02-14T16:30:55.974Z,5.78
2023-02-14T16:36:06.209Z,5.71
2023-02-14T16:41:15.032Z,5.79
2023-02-14T16:46:20.628Z,5.79
2023-02-14T16:51:27.183Z,5.75
2023-02-14T16:56:40.900Z,5.78
2023-02-14T17:01:42.392Z,5.75
2023-02-14T17:06:49.415Z,5.71
2023-02-14T17:11:52.657Z,5.64
2023-02-14T17:16:57.069Z,5.59
2023-02-14T17:21:59.812Z,5.48
2023-02-14T17:27:01.137Z,5.40
2023-02-14T17:32:02.921Z,5.33
2023-02-14T17:37:04.297Z,5.25
2023-02-14T17:42:05.850Z,5.11
2023-02-14T17:47:07.190Z,5.01
2023-02-14T17:52:08.508Z,4.92
2023-02-14T17:57:10.332Z,4.82
2023-02-14T18:02:11.837Z,4.77
2023-02-14T18:07:13.169Z,4.65
2023-02-14T18:12:15.162Z,4.57
2023-02-14T18:17:16.668Z,4.46
2023-02-14T18:22:18.048Z,4.38
2023-02-14T18:27:19.425Z,4.25
2023-02-14T18:32:20.762Z,4.13
2023-02-14T18:37:22.191Z,4.06
2023-02-14T18:42:23.748Z,4.01
2023-02-14T18:47:25.138Z,3.91
2023-02-14T18:52:26.540Z,3.87
2023-02-14T18:57:27.862Z,3.81
2023-02-14T19:02:29.257Z,3.75
2023-02-14T19:07:30.978Z,3.67
2023-02-14T19:12:33.572Z,3.61
2023-02-14T19:17:35.225Z,3.56
2023-02-14T19:22:38.361Z,3.50
2023-02-14T19:27:39.801Z,3.49
2023-02-14T19:32:41.174Z,3.56
2023-02-14T19:37:42.496Z,3.62
2023-02-14T19:42:43.831Z,3.67
2023-02-14T19:47:47.338Z,3.73
2023-02-14T19:52:49.163Z,3.98
2023-02-14T19:57:50.614Z,4.03
2023-02-14T20:02:52.050Z,4.12
2023-02-14T20:07:56.405Z,4.30
2023-02-14T20:12:57.971Z,4.52
2023-02-14T20:17:59.624Z,4.67
2023-02-14T20:23:00.989Z,4.81
2023-02-14T20:28:02.531Z,4.91
2023-02-14T20:33:04.564Z,4.98
2023-02-14T20:38:09.523Z,5.11
2023-02-14T20:43:11.206Z,5.17
2023-02-14T20:48:12.828Z,5.21
2023-02-14T20:53:14.277Z,5.21
2023-02-14T20:58:15.662Z,5.22
2023-02-14T21:03:17.180Z,5.28
2023-02-14T21:08:18.612Z,5.34
2023-02-14T21:13:20.196Z,5.40
2023-02-14T21:18:21.763Z,5.40
2023-02-14T21:23:23.131Z,5.44
2023-02-14T21:28:24.737Z,5.41
2023-02-14T21:33:26.070Z,5.43
2023-02-14T21:38:27.793Z,5.50
2023-02-14T21:43:29.215Z,5.50
2023-02-14T21:48:54.259Z,5.44
2023-02-14T21:53:56.546Z,5.44
2023-02-14T21:58:57.898Z,5.45
2023-02-14T22:04:00.410Z,5.50
2023-02-14T22:09:01.769Z,5.44
2023-02-14T22:14:03.600Z,5.36
2023-02-14T22:19:07.184Z,5.31
2023-02-14T22:24:08.539Z,5.10
2023-02-14T22:29:11.836Z,5.19
2023-02-14T22:34:17.525Z,5.11
2023-02-14T22:39:18.879Z,5.18
2023-02-14T22:44:20.285Z,5.21
2023-02-14T22:49:21.622Z,5.20
2023-02-14T22:54:23.135Z,5.21
2023-02-14T22:59:25.740Z,5.09
2023-02-14T23:04:29.638Z,4.81
2023-02-14T23:09:31.018Z,4.67
2023-02-14T23:14:51.306Z,4.80
2023-02-14T23:20:11.086Z,4.75
2023-02-14T23:25:12.461Z,4.80
2023-02-14T23:30:16.634Z,4.91
2023-02-14T23:35:18.126Z,4.86
2023-02-14T23:40:20.313Z,4.92
2023-02-14T23:45:36.772Z,4.98
2023-02-14T23:50:38.311Z,4.96
2023-02-14T23:55:39.615Z,5.03
